sensor_id;sensor_type;location;lat;lon;timestamp;P1;durP1;ratioP1;P2;durP2;ratioP2
69716;SDS011;75890;46.144;19.666;2024-01-30T00:09:28;7.63;;;5.88;;
69716;SDS011;75890;46.144;19.666;2024-01-30T00:19:30;6.75;;;5.57;;
69716;SDS011;75890;46.144;19.666;2024-01-30T00:29:32;7.97;;;6.10;;
69716;SDS011;75890;46.144;19.666;2024-01-30T00:39:35;10.52;;;7.55;;
69716;SDS011;75890;46.144;19.666;2024-01-30T00:49:37;12.63;;;7.97;;
69716;SDS011;75890;46.144;19.666;2024-01-30T00:59:39;13.23;;;8.65;;
69716;SDS011;75890;46.144;19.666;2024-01-30T01:09:41;10.25;;;7.93;;
69716;SDS011;75890;46.144;19.666;2024-01-30T01:19:43;10.95;;;7.70;;
69716;SDS011;75890;46.144;19.666;2024-01-30T01:29:45;9.80;;;7.40;;
69716;SDS011;75890;46.144;19.666;2024-01-30T01:39:47;10.90;;;7.95;;
69716;SDS011;75890;46.144;19.666;2024-01-30T01:49:48;10.13;;;7.57;;
69716;SDS011;75890;46.144;19.666;2024-01-30T01:59:51;8.80;;;7.18;;
69716;SDS011;75890;46.144;19.666;2024-01-30T02:09:53;8.75;;;7.10;;
69716;SDS011;75890;46.144;19.666;2024-01-30T02:19:56;10.90;;;8.32;;
69716;SDS011;75890;46.144;19.666;2024-01-30T02:29:58;12.13;;;8.98;;
69716;SDS011;75890;46.144;19.666;2024-01-30T02:40:00;10.95;;;8.93;;
69716;SDS011;75890;46.144;19.666;2024-01-30T02:50:02;11.02;;;9.25;;
69716;SDS011;75890;46.144;19.666;2024-01-30T03:00:05;12.90;;;9.68;;
69716;SDS011;75890;46.144;19.666;2024-01-30T03:10:10;12.57;;;9.93;;
69716;SDS011;75890;46.144;19.666;2024-01-30T03:20:12;12.80;;;9.77;;
69716;SDS011;75890;46.144;19.666;2024-01-30T03:30:14;11.88;;;9.95;;
69716;SDS011;75890;46.144;19.666;2024-01-30T03:40:16;11.60;;;9.77;;
69716;SDS011;75890;46.144;19.666;2024-01-30T03:50:18;12.50;;;10.20;;
69716;SDS011;75890;46.144;19.666;2024-01-30T04:00:20;10.75;;;9.43;;
69716;SDS011;75890;46.144;19.666;2024-01-30T04:10:23;11.77;;;9.82;;
69716;SDS011;75890;46.144;19.666;2024-01-30T04:20:26;10.35;;;8.85;;
69716;SDS011;75890;46.144;19.666;2024-01-30T04:30:28;10.13;;;8.57;;
69716;SDS011;75890;46.144;19.666;2024-01-30T04:40:30;9.10;;;8.20;;
69716;SDS011;75890;46.144;19.666;2024-01-30T04:50:32;12.60;;;10.02;;
69716;SDS011;75890;46.144;19.666;2024-01-30T05:00:33;9.50;;;8.50;;
69716;SDS011;75890;46.144;19.666;2024-01-30T05:10:36;10.45;;;8.30;;
69716;SDS011;75890;46.144;19.666;2024-01-30T05:20:38;8.98;;;8.00;;
69716;SDS011;75890;46.144;19.666;2024-01-30T05:30:40;8.40;;;7.50;;
69716;SDS011;75890;46.144;19.666;2024-01-30T05:40:42;10.20;;;8.13;;
69716;SDS011;75890;46.144;19.666;2024-01-30T05:50:44;8.77;;;7.10;;
69716;SDS011;75890;46.144;19.666;2024-01-30T06:00:46;8.85;;;7.50;;
69716;SDS011;75890;46.144;19.666;2024-01-30T06:10:48;8.57;;;7.53;;
69716;SDS011;75890;46.144;19.666;2024-01-30T06:20:50;8.77;;;7.43;;
69716;SDS011;75890;46.144;19.666;2024-01-30T06:30:52;9.18;;;6.70;;
69716;SDS011;75890;46.144;19.666;2024-01-30T06:40:54;7.60;;;6.82;;
69716;SDS011;75890;46.144;19.666;2024-01-30T06:50:56;8.15;;;7.30;;
69716;SDS011;75890;46.144;19.666;2024-01-30T07:00:59;8.68;;;7.38;;
69716;SDS011;75890;46.144;19.666;2024-01-30T07:11:01;10.07;;;8.50;;
69716;SDS011;75890;46.144;19.666;2024-01-30T07:21:03;9.52;;;8.30;;
69716;SDS011;75890;46.144;19.666;2024-01-30T07:31:05;12.85;;;9.65;;
69716;SDS011;75890;46.144;19.666;2024-01-30T07:41:08;13.52;;;10.02;;
69716;SDS011;75890;46.144;19.666;2024-01-30T07:51:09;12.55;;;10.40;;
69716;SDS011;75890;46.144;19.666;2024-01-30T08:01:11;13.50;;;10.95;;
69716;SDS011;75890;46.144;19.666;2024-01-30T08:11:14;11.85;;;10.50;;
69716;SDS011;75890;46.144;19.666;2024-01-30T08:21:16;13.15;;;11.07;;
69716;SDS011;75890;46.144;19.666;2024-01-30T08:31:17;15.43;;;11.60;;
69716;SDS011;75890;46.144;19.666;2024-01-30T08:41:19;14.73;;;11.68;;
69716;SDS011;75890;46.144;19.666;2024-01-30T08:51:21;14.63;;;11.45;;
69716;SDS011;75890;46.144;19.666;2024-01-30T09:01:24;15.40;;;12.05;;
69716;SDS011;75890;46.144;19.666;2024-01-30T09:11:26;15.82;;;12.45;;
69716;SDS011;75890;46.144;19.666;2024-01-30T09:21:28;16.05;;;12.57;;
69716;SDS011;75890;46.144;19.666;2024-01-30T09:31:30;15.35;;;11.38;;
69716;SDS011;75890;46.144;19.666;2024-01-30T09:41:32;13.73;;;11.73;;
69716;SDS011;75890;46.144;19.666;2024-01-30T09:51:38;14.68;;;11.57;;
69716;SDS011;75890;46.144;19.666;2024-01-30T10:01:40;15.48;;;12.48;;
69716;SDS011;75890;46.144;19.666;2024-01-30T10:11:44;14.82;;;11.93;;
69716;SDS011;75890;46.144;19.666;2024-01-30T10:21:46;13.75;;;11.45;;
69716;SDS011;75890;46.144;19.666;2024-01-30T10:42:19;13.48;;;11.30;;
69716;SDS011;75890;46.144;19.666;2024-01-30T10:52:25;12.88;;;10.45;;
69716;SDS011;75890;46.144;19.666;2024-01-30T11:02:27;12.70;;;10.45;;
69716;SDS011;75890;46.144;19.666;2024-01-30T11:12:33;13.32;;;11.02;;
69716;SDS011;75890;46.144;19.666;2024-01-30T11:22:42;13.55;;;10.85;;
69716;SDS011;75890;46.144;19.666;2024-01-30T11:32:46;16.35;;;11.98;;
69716;SDS011;75890;46.144;19.666;2024-01-30T11:43:10;15.48;;;11.38;;
69716;SDS011;75890;46.144;19.666;2024-01-30T11:53:12;16.02;;;12.18;;
69716;SDS011;75890;46.144;19.666;2024-01-30T12:03:15;16.95;;;13.30;;
69716;SDS011;75890;46.144;19.666;2024-01-30T12:13:16;15.68;;;12.23;;
69716;SDS011;75890;46.144;19.666;2024-01-30T12:23:18;17.45;;;13.15;;
69716;SDS011;75890;46.144;19.666;2024-01-30T12:33:22;15.55;;;12.32;;
69716;SDS011;75890;46.144;19.666;2024-01-30T12:43:29;15.27;;;11.63;;
69716;SDS011;75890;46.144;19.666;2024-01-30T12:53:39;13.88;;;11.23;;
69716;SDS011;75890;46.144;19.666;2024-01-30T13:03:41;12.02;;;10.07;;
69716;SDS011;75890;46.144;19.666;2024-01-30T13:13:43;11.50;;;9.32;;
69716;SDS011;75890;46.144;19.666;2024-01-30T13:23:45;12.30;;;9.82;;
69716;SDS011;75890;46.144;19.666;2024-01-30T13:33:47;13.45;;;10.00;;
69716;SDS011;75890;46.144;19.666;2024-01-30T13:43:50;12.65;;;9.55;;
69716;SDS011;75890;46.144;19.666;2024-01-30T13:53:52;13.00;;;9.52;;
69716;SDS011;75890;46.144;19.666;2024-01-30T14:03:54;12.27;;;10.05;;
69716;SDS011;75890;46.144;19.666;2024-01-30T14:13:56;11.80;;;9.45;;
69716;SDS011;75890;46.144;19.666;2024-01-30T14:23:58;10.40;;;8.88;;
69716;SDS011;75890;46.144;19.666;2024-01-30T14:34:00;11.38;;;9.00;;
69716;SDS011;75890;46.144;19.666;2024-01-30T14:44:02;10.25;;;8.77;;
69716;SDS011;75890;46.144;19.666;2024-01-30T14:54:06;12.10;;;9.15;;
69716;SDS011;75890;46.144;19.666;2024-01-30T15:04:08;13.35;;;9.02;;
69716;SDS011;75890;46.144;19.666;2024-01-30T15:14:10;13.43;;;9.57;;
69716;SDS011;75890;46.144;19.666;2024-01-30T15:24:12;13.80;;;10.10;;
69716;SDS011;75890;46.144;19.666;2024-01-30T15:34:16;15.63;;;10.93;;
69716;SDS011;75890;46.144;19.666;2024-01-30T15:44:18;17.35;;;12.18;;
69716;SDS011;75890;46.144;19.666;2024-01-30T15:54:20;18.83;;;13.55;;
69716;SDS011;75890;46.144;19.666;2024-01-30T16:04:23;20.90;;;14.57;;
69716;SDS011;75890;46.144;19.666;2024-01-30T16:14:26;21.65;;;15.43;;
69716;SDS011;75890;46.144;19.666;2024-01-30T16:24:28;23.83;;;16.45;;
69716;SDS011;75890;46.144;19.666;2024-01-30T16:34:30;26.25;;;17.45;;
69716;SDS011;75890;46.144;19.666;2024-01-30T16:44:32;24.13;;;15.90;;
69716;SDS011;75890;46.144;19.666;2024-01-30T16:54:34;25.83;;;16.10;;
69716;SDS011;75890;46.144;19.666;2024-01-30T17:04:37;22.17;;;15.32;;
69716;SDS011;75890;46.144;19.666;2024-01-30T17:14:39;23.20;;;15.52;;
69716;SDS011;75890;46.144;19.666;2024-01-30T17:24:43;21.50;;;15.32;;
69716;SDS011;75890;46.144;19.666;2024-01-30T17:34:51;19.17;;;14.35;;
69716;SDS011;75890;46.144;19.666;2024-01-30T17:44:53;21.30;;;13.88;;
69716;SDS011;75890;46.144;19.666;2024-01-30T17:54:55;19.48;;;13.68;;
69716;SDS011;75890;46.144;19.666;2024-01-30T18:04:57;20.13;;;14.05;;
69716;SDS011;75890;46.144;19.666;2024-01-30T18:15:00;20.40;;;13.93;;
69716;SDS011;75890;46.144;19.666;2024-01-30T18:25:01;18.67;;;12.93;;
69716;SDS011;75890;46.144;19.666;2024-01-30T18:35:04;18.95;;;13.27;;
69716;SDS011;75890;46.144;19.666;2024-01-30T18:45:06;19.48;;;13.20;;
69716;SDS011;75890;46.144;19.666;2024-01-30T18:55:09;19.48;;;14.05;;
69716;SDS011;75890;46.144;19.666;2024-01-30T19:05:10;18.77;;;13.35;;
69716;SDS011;75890;46.144;19.666;2024-01-30T19:15:13;17.58;;;12.65;;
69716;SDS011;75890;46.144;19.666;2024-01-30T19:25:14;16.98;;;12.52;;
69716;SDS011;75890;46.144;19.666;2024-01-30T19:35:16;18.77;;;13.02;;
69716;SDS011;75890;46.144;19.666;2024-01-30T19:45:18;17.73;;;12.88;;
69716;SDS011;75890;46.144;19.666;2024-01-30T19:55:21;18.20;;;13.40;;
69716;SDS011;75890;46.144;19.666;2024-01-30T20:05:26;17.42;;;13.18;;
69716;SDS011;75890;46.144;19.666;2024-01-30T20:15:29;20.42;;;14.10;;
69716;SDS011;75890;46.144;19.666;2024-01-30T20:25:32;17.05;;;12.63;;
69716;SDS011;75890;46.144;19.666;2024-01-30T20:35:34;18.85;;;13.75;;
69716;SDS011;75890;46.144;19.666;2024-01-30T20:45:36;20.73;;;13.73;;
69716;SDS011;75890;46.144;19.666;2024-01-30T20:55:37;17.15;;;12.60;;
69716;SDS011;75890;46.144;19.666;2024-01-30T21:05:39;23.90;;;16.25;;
69716;SDS011;75890;46.144;19.666;2024-01-30T21:15:43;33.78;;;21.58;;
69716;SDS011;75890;46.144;19.666;2024-01-30T21:25:45;33.03;;;21.63;;
69716;SDS011;75890;46.144;19.666;2024-01-30T21:35:46;33.22;;;20.90;;
69716;SDS011;75890;46.144;19.666;2024-01-30T21:45:48;29.75;;;19.85;;
69716;SDS011;75890;46.144;19.666;2024-01-30T21:55:50;30.95;;;19.65;;
69716;SDS011;75890;46.144;19.666;2024-01-30T22:05:52;29.20;;;19.10;;
69716;SDS011;75890;46.144;19.666;2024-01-30T22:15:54;30.13;;;19.90;;
69716;SDS011;75890;46.144;19.666;2024-01-30T22:25:56;30.20;;;18.50;;
69716;SDS011;75890;46.144;19.666;2024-01-30T22:36:00;26.88;;;17.80;;
69716;SDS011;75890;46.144;19.666;2024-01-30T22:46:01;24.90;;;16.88;;
69716;SDS011;75890;46.144;19.666;2024-01-30T22:56:03;25.17;;;17.60;;
69716;SDS011;75890;46.144;19.666;2024-01-30T23:06:08;25.20;;;17.23;;
69716;SDS011;75890;46.144;19.666;2024-01-30T23:16:10;25.45;;;17.13;;
69716;SDS011;75890;46.144;19.666;2024-01-30T23:26:12;24.85;;;16.20;;
69716;SDS011;75890;46.144;19.666;2024-01-30T23:36:17;23.27;;;15.70;;
69716;SDS011;75890;46.144;19.666;2024-01-30T23:46:18;22.83;;;16.02;;
69716;SDS011;75890;46.144;19.666;2024-01-30T23:56:20;24.30;;;15.82;;
